createdAt,value
2023-05-02T00:03:22.107Z,85.85
2023-05-02T00:08:26.452Z,88.36
2023-05-02T00:13:30.500Z,87.99
2023-05-02T00:18:35.786Z,88.18
2023-05-02T00:23:39.650Z,88.62
2023-05-02T00:28:43.610Z,90.22
2023-05-02T00:33:48.986Z,90.55
2023-05-02T00:38:53.216Z,91.88
2023-05-02T00:43:57.372Z,91.67
2023-05-02T00:49:03.292Z,90.56
2023-05-02T00:54:07.320Z,93.67
2023-05-02T00:59:12.238Z,93.63
2023-05-02T01:04:29.005Z,94.62
2023-05-02T01:09:41.084Z,94.07
2023-05-02T01:14:48.263Z,96.17
2023-05-02T01:19:56.354Z,95.85
2023-05-02T01:25:06.416Z,97.10
2023-05-02T01:30:13.221Z,96.87
2023-05-02T01:35:18.218Z,98.86
2023-05-02T01:40:23.011Z,98.67
2023-05-02T01:45:29.224Z,98.09
2023-05-02T01:50:33.315Z,100.00
2023-05-02T01:55:38.256Z,99.86
2023-05-02T02:00:45.409Z,99.07
2023-05-02T02:05:51.101Z,98.28
2023-05-02T02:10:59.096Z,99.16
2023-05-02T02:16:07.313Z,99.93
2023-05-02T02:21:13.385Z,100.00
2023-05-02T02:26:19.192Z,100.00
2023-05-02T02:31:25.967Z,100.00
2023-05-02T02:36:34.395Z,100.00
2023-05-02T02:41:43.213Z,100.00
2023-05-02T02:46:52.903Z,100.00
2023-05-02T02:52:03.914Z,100.00
2023-05-02T02:57:16.506Z,100.00
2023-05-02T03:02:24.268Z,100.00
2023-05-02T03:07:29.572Z,100.00
2023-05-02T03:12:35.207Z,100.00
2023-05-02T03:17:42.330Z,100.00
2023-05-02T03:22:46.575Z,100.00
2023-05-02T03:27:50.733Z,100.00
2023-05-02T03:32:56.268Z,100.00
2023-05-02T03:38:00.494Z,100.00
2023-05-02T03:43:04.795Z,100.00
2023-05-02T03:48:11.691Z,100.00
2023-05-02T03:53:16.324Z,100.00
2023-05-02T03:58:28.777Z,100.00
2023-05-02T04:03:34.931Z,100.00
2023-05-02T04:08:39.186Z,100.00
2023-05-02T04:13:43.421Z,100.00
2023-05-02T04:18:49.623Z,100.00
2023-05-02T04:23:54.362Z,100.00
2023-05-02T04:28:58.517Z,100.00
2023-05-02T04:34:04.477Z,97.49
2023-05-02T04:39:14.227Z,96.82
2023-05-02T04:44:24.866Z,97.64
2023-05-02T04:49:32.182Z,95.37
2023-05-02T04:54:36.138Z,94.54
2023-05-02T04:59:40.065Z,93.03
2023-05-02T05:04:46.571Z,90.07
2023-05-02T05:09:53.285Z,88.89
2023-05-02T05:14:59.269Z,89.58
2023-05-02T05:20:09.575Z,85.39
2023-05-02T05:25:15.342Z,83.37
2023-05-02T05:30:21.495Z,80.19
2023-05-02T05:35:27.239Z,78.26
2023-05-02T05:40:32.404Z,75.06
2023-05-02T05:45:37.029Z,73.75
2023-05-02T05:50:43.944Z,73.40
2023-05-02T05:55:48.688Z,72.63
2023-05-02T06:00:52.740Z,69.97
2023-05-02T06:05:58.326Z,68.06
2023-05-02T06:11:03.133Z,66.52
2023-05-02T06:16:07.660Z,67.00
2023-05-02T06:21:13.927Z,65.78
2023-05-02T06:26:17.993Z,64.80
2023-05-02T06:31:22.054Z,63.52
2023-05-02T06:36:27.802Z,65.16
2023-05-02T06:41:32.067Z,61.86
2023-05-02T06:46:35.952Z,62.49
2023-05-02T06:51:41.453Z,63.12
2023-05-02T06:56:45.685Z,62.30
2023-05-02T07:01:49.640Z,62.95
2023-05-02T07:06:55.145Z,64.14
2023-05-02T07:11:59.099Z,65.48
2023-05-02T07:17:03.049Z,66.29
2023-05-02T07:22:08.851Z,65.62
2023-05-02T07:27:13.948Z,66.02
2023-05-02T07:32:17.890Z,65.24
2023-05-02T07:37:23.431Z,63.77
2023-05-02T07:42:30.449Z,64.67
2023-05-02T07:47:34.578Z,64.66
2023-05-02T07:52:40.019Z,63.74
2023-05-02T07:57:44.007Z,62.66
2023-05-02T08:02:47.990Z,62.66
2023-05-02T08:07:53.384Z,62.56
2023-05-02T08:12:57.438Z,63.02
2023-05-02T08:18:01.565Z,63.71
2023-05-02T08:23:06.965Z,61.39
2023-05-02T08:28:11.095Z,60.99
2023-05-02T08:33:15.054Z,61.63
2023-05-02T08:38:20.310Z,61.45
2023-05-02T08:43:24.255Z,63.43
2023-05-02T08:48:28.517Z,61.17
2023-05-02T08:53:35.687Z,62.51
2023-05-02T08:58:40.928Z,60.43
2023-05-02T09:03:45.804Z,59.14
2023-05-02T09:08:52.693Z,60.72
2023-05-02T09:13:58.942Z,59.60
2023-05-02T09:19:02.824Z,60.21
2023-05-02T09:24:18.259Z,59.69
2023-05-02T09:29:22.999Z,61.07
2023-05-02T09:34:26.963Z,59.55
2023-05-02T09:39:32.270Z,59.70
2023-05-02T09:44:40.233Z,60.01
2023-05-02T09:49:46.532Z,63.01
2023-05-02T09:54:52.838Z,59.42
2023-05-02T09:59:57.500Z,60.51
2023-05-02T10:05:02.944Z,60.24
2023-05-02T10:10:12.865Z,60.02
2023-05-02T10:15:18.155Z,61.09
2023-05-02T10:20:28.200Z,59.95
2023-05-02T10:25:34.342Z,60.81
2023-05-02T10:30:38.812Z,59.30
2023-05-02T10:35:45.653Z,60.21
2023-05-02T10:40:56.938Z,59.76
2023-05-02T10:46:02.092Z,59.03
2023-05-02T10:51:06.354Z,59.49
2023-05-02T10:56:17.100Z,59.47
2023-05-02T11:01:40.844Z,60.37
2023-05-02T11:07:20.684Z,60.51
2023-05-02T11:12:48.901Z,60.41
2023-05-02T11:18:02.399Z,59.79
2023-05-02T11:23:26.057Z,57.55
2023-05-02T11:28:43.470Z,59.21
2023-05-02T11:33:56.382Z,58.44
2023-05-02T11:39:00.998Z,59.33
2023-05-02T11:44:06.612Z,59.33
2023-05-02T11:49:14.746Z,60.56
2023-05-02T11:54:22.931Z,59.83
2023-05-02T11:59:28.683Z,60.73
2023-05-02T12:04:32.836Z,61.30
2023-05-02T12:09:37.079Z,62.10
2023-05-02T12:14:42.497Z,61.41
2023-05-02T12:19:46.693Z,59.07
2023-05-02T12:24:50.791Z,55.67
2023-05-02T12:29:57.621Z,56.31
2023-05-02T12:35:03.144Z,58.16
2023-05-02T12:40:16.643Z,59.45
2023-05-02T12:45:22.655Z,59.23
2023-05-02T12:50:37.584Z,57.43
2023-05-02T12:55:41.651Z,59.73
2023-05-02T13:00:47.929Z,59.02
2023-05-02T13:05:55.294Z,60.82
2023-05-02T13:10:59.305Z,59.81
2023-05-02T13:16:04.928Z,59.57
2023-05-02T13:21:09.962Z,59.08
2023-05-02T13:26:13.886Z,59.30
2023-05-02T13:31:19.604Z,61.64
2023-05-02T13:36:24.451Z,62.94
2023-05-02T13:41:28.669Z,62.98
2023-05-02T13:46:37.519Z,60.62
2023-05-02T13:51:41.784Z,62.71
2023-05-02T13:56:45.893Z,61.41
2023-05-02T14:01:51.939Z,59.69
2023-05-02T14:06:55.935Z,57.78
2023-05-02T14:11:59.894Z,57.68
2023-05-02T14:17:05.582Z,57.72
2023-05-02T14:22:09.530Z,57.24
2023-05-02T14:27:18.177Z,56.21
2023-05-02T14:32:23.958Z,57.40
2023-05-02T14:37:27.792Z,56.48
2023-05-02T14:42:31.911Z,56.65
2023-05-02T14:47:37.485Z,58.16
2023-05-02T14:52:41.579Z,59.32
2023-05-02T14:57:45.809Z,60.10
2023-05-02T15:02:51.360Z,62.05
2023-05-02T15:07:55.253Z,60.32
2023-05-02T15:12:59.270Z,57.46
2023-05-02T15:18:05.046Z,55.89
2023-05-02T15:23:09.292Z,57.96
2023-05-02T15:28:13.548Z,56.76
2023-05-02T15:33:19.189Z,56.30
2023-05-02T15:38:23.349Z,58.46
2023-05-02T15:43:28.025Z,60.51
2023-05-02T15:48:34.955Z,59.98
2023-05-02T15:53:44.134Z,59.17
2023-05-02T15:58:48.420Z,59.26
2023-05-02T16:03:53.676Z,62.93
2023-05-02T16:08:57.546Z,62.72
2023-05-02T16:14:01.708Z,62.29
2023-05-02T16:19:12.583Z,62.78
2023-05-02T16:24:16.654Z,61.30
2023-05-02T16:29:20.684Z,62.38
2023-05-02T16:34:26.065Z,61.91
2023-05-02T16:39:30.389Z,62.48
2023-05-02T16:44:34.603Z,63.34
2023-05-02T16:49:40.476Z,65.78
2023-05-02T16:54:44.577Z,65.54
2023-05-02T16:59:49.138Z,66.68
2023-05-02T17:04:54.363Z,67.22
2023-05-02T17:09:58.235Z,68.29
2023-05-02T17:15:03.588Z,69.21
2023-05-02T17:20:11.153Z,69.85
2023-05-02T17:25:15.263Z,70.33
2023-05-02T17:30:19.429Z,70.85
2023-05-02T17:35:24.956Z,75.65
2023-05-02T17:40:29.827Z,76.39
2023-05-02T17:45:33.908Z,78.36
2023-05-02T17:50:39.430Z,79.32
2023-05-02T17:55:43.337Z,85.46
2023-05-02T18:00:47.216Z,100.00
2023-05-02T18:05:52.638Z,100.00
2023-05-02T18:10:56.954Z,100.00
2023-05-02T18:16:01.948Z,100.00
2023-05-02T18:21:10.510Z,100.00
2023-05-02T18:26:15.174Z,100.00
2023-05-02T18:31:19.729Z,100.00
2023-05-02T18:36:29.444Z,100.00
2023-05-02T18:41:33.314Z,100.00
2023-05-02T18:46:37.560Z,100.00
2023-05-02T18:51:43.064Z,100.00
2023-05-02T18:56:48.033Z,100.00
2023-05-02T19:01:52.381Z,100.00
2023-05-02T19:06:57.918Z,100.00
2023-05-02T19:12:01.980Z,100.00
2023-05-02T19:17:06.223Z,100.00
2023-05-02T19:22:11.805Z,100.00
2023-05-02T19:27:15.984Z,100.00
2023-05-02T19:32:21.707Z,100.00
2023-05-02T19:37:27.321Z,100.00
2023-05-02T19:42:31.186Z,100.00
2023-05-02T19:47:35.293Z,100.00
2023-05-02T19:52:41.653Z,100.00
2023-05-02T19:57:45.698Z,100.00
2023-05-02T20:02:51.315Z,100.00
2023-05-02T20:07:56.922Z,100.00
2023-05-02T20:13:00.803Z,100.00
2023-05-02T20:18:04.998Z,100.00
2023-05-02T20:23:10.412Z,100.00
2023-05-02T20:28:14.310Z,100.00
2023-05-02T20:33:18.769Z,100.00
2023-05-02T20:38:24.986Z,100.00
2023-05-02T20:43:29.242Z,100.00
2023-05-02T20:48:33.974Z,100.00
2023-05-02T20:53:39.527Z,100.00
2023-05-02T20:58:43.395Z,100.00
2023-05-02T21:03:47.485Z,100.00
2023-05-02T21:08:55.127Z,100.00
2023-05-02T21:13:58.958Z,100.00
2023-05-02T21:19:03.139Z,100.00
2023-05-02T21:24:09.778Z,100.00
2023-05-02T21:29:14.977Z,100.00
2023-05-02T21:34:19.132Z,100.00
2023-05-02T21:39:26.184Z,100.00
2023-05-02T21:44:30.145Z,100.00
2023-05-02T21:49:34.452Z,100.00
2023-05-02T21:54:39.862Z,100.00
2023-05-02T21:59:43.948Z,100.00
2023-05-02T22:04:48.291Z,100.00
2023-05-02T22:09:53.896Z,100.00
2023-05-02T22:14:57.988Z,100.00
2023-05-02T22:20:02.677Z,100.00
2023-05-02T22:25:08.877Z,100.00
2023-05-02T22:30:13.040Z,100.00
2023-05-02T22:35:18.104Z,100.00
2023-05-02T22:40:23.500Z,100.00
2023-05-02T22:45:27.985Z,100.00
2023-05-02T22:50:31.959Z,100.00
2023-05-02T22:55:39.452Z,100.00
2023-05-02T23:00:46.714Z,100.00
2023-05-02T23:05:50.891Z,100.00
2023-05-02T23:10:56.347Z,100.00
2023-05-02T23:16:00.595Z,100.00
2023-05-02T23:21:05.100Z,100.00
2023-05-02T23:26:10.621Z,100.00
2023-05-02T23:31:14.673Z,100.00
2023-05-02T23:36:19.000Z,100.00
2023-05-02T23:41:26.321Z,100.00
2023-05-02T23:46:30.252Z,100.00
2023-05-02T23:51:34.482Z,100.00
2023-05-02T23:56:39.959Z,100.00
